Flight Track Log - Related Links

Times and Time Zones

All times are in EDT time to prevent confusion due to time zone crossing. See the N507PD flight status page for this flight to view local times or setup timezone preferences in your user account.

Time Position Orientation Groundspeed Altitude Reporting Facility
EDT Latitude Longitude Course Direction KTS MPH feet Rate Location/Type
Tue 04:53:18 PM 30.6086 -88.2678 344° North 244 281 6,300  Level Houston Center
Tue 04:54:20 PM 30.6667 -88.3164 324° Northwest 277 319 9,300 1,790 Climbing Houston Center
Tue 04:55:22 PM 30.7517 -88.3361 349° North 305 351 10,000 1,742 Climbing Houston Center
Tue 04:56:24 PM 30.8561 -88.3644 347° North 319 367 12,900 3,000 Climbing Houston Center
Tue 04:57:26 PM 30.9414 -88.3892 346° North 314 361 16,200 2,806 Climbing Houston Center
Tue 04:58:00 PM 31.2295 -88.4154 344° North  Level FlightAware Approximate
Tue 04:58:28 PM 31.0264 -88.4131 346° North 310 357 18,700  Level Houston Center
Tue 04:59:30 PM 31.1139 -88.4392 346° North 318 366 21,300 2,208 Climbing Houston Center
Tue 05:00:33 PM 31.2022 -88.4647 346° North 323 372 23,300 1,968 Climbing Houston Center
Tue 05:01:35 PM 31.2928 -88.4911 346° North 332 382 25,400 1,984 Climbing Houston Center
Tue 05:02:37 PM 31.3850 -88.5172 346° North 337 388 27,400 1,935 Climbing Houston Center
Tue 05:03:39 PM 31.4758 -88.5431 346° North 336 387 29,400 2,129 Climbing Houston Center
Tue 05:04:41 PM 31.5847 -88.5739 346° North 335 386 31,800 1,887 Climbing Houston Center
Tue 05:05:43 PM 31.6728 -88.6003 346° North 329 379 33,300 1,452 Climbing Houston Center
Tue 05:06:45 PM 31.7644 -88.6258 347° North 334 384 34,800 1,452 Climbing Houston Center
Tue 05:07:47 PM 31.8572 -88.6531 346° North 340 391 36,300 1,240 Climbing Houston Center
Tue 05:08:46 PM 31.9486 -88.6778 347° North 335 386 37,300 1,008 Climbing Memphis Center
Tue 05:09:46 PM 32.0408 -88.7056 346° North 335 386 38,300 1,000 Climbing Memphis Center
Tue 05:10:46 PM 32.1331 -88.7333 346° North 335 386 39,300 850 Climbing Memphis Center
Tue 05:11:46 PM 32.2233 -88.7586 347° North 335 386 40,000 350 Climbing Memphis Center
Tue 05:12:46 PM 32.3300 -88.7911 346° North 346 398 40,000  Level Memphis Center
Tue 05:13:46 PM 32.4306 -88.8142 349° North 353 406 40,000  Level Memphis Center
Tue 05:14:46 PM 32.5311 -88.8344 350° North 363 418 40,000  Level Memphis Center
Tue 05:15:46 PM 32.6336 -88.8550 350° North 369 425 40,000  Level Memphis Center
Tue 05:16:46 PM 32.7383 -88.8778 350° North 369 425 40,000  Level Memphis Center
Tue 05:17:46 PM 32.8386 -88.8983 350° North 369 425 40,000  Level Memphis Center
Tue 05:18:46 PM 32.9392 -88.9192 350° North 374 430 40,000  Level Memphis Center
Tue 05:19:46 PM 33.0417 -88.9397 350° North 374 430 40,000  Level Memphis Center
Tue 05:20:46 PM 33.1442 -88.9603 350° North 374 430 40,000  Level Memphis Center
Tue 05:21:46 PM 33.2447 -88.9836 349° North 369 425 40,000  Level Memphis Center
Tue 05:22:46 PM 33.3472 -89.0044 350° North 369 425 40,000  Level Memphis Center
Tue 05:23:46 PM 33.4497 -89.0253 350° North 369 425 40,000  Level Memphis Center
Tue 05:24:46 PM 33.5439 -89.0461 350° North 374 430 40,000  Level Memphis Center
Tue 05:25:46 PM 33.6464 -89.0672 350° North 374 430 40,000  Level Memphis Center
Tue 05:26:46 PM 33.7531 -89.0881 351° North 374 430 40,000  Level Memphis Center
Tue 05:27:46 PM 33.8575 -89.1114 349° North 374 430 40,000  Level Memphis Center
Tue 05:28:46 PM 33.9622 -89.1325 351° North 374 430 40,000  Level Memphis Center
Tue 05:29:46 PM 34.0644 -89.1536 350° North 374 430 40,000  Level Memphis Center
Tue 05:30:46 PM 34.1692 -89.1772 349° North 374 430 40,000  Level Memphis Center
Tue 05:31:46 PM 34.2778 -89.2008 350° North 379 436 40,000  Level Memphis Center
Tue 05:32:46 PM 34.3825 -89.2222 350° North 379 436 40,000  Level Memphis Center
Tue 05:33:46 PM 34.4847 -89.2433 350° North 374 430 40,000  Level Memphis Center
Tue 05:34:46 PM 34.5894 -89.2647 350° North 374 430 40,000  Level Memphis Center
Tue 05:35:46 PM 34.6939 -89.2861 350° North 374 430 40,000  Level Memphis Center
Tue 05:36:46 PM 34.8006 -89.3100 350° North 374 430 40,000  Level Memphis Center
Tue 05:37:46 PM 34.9028 -89.3267 352° North 374 430 40,000  Level Memphis Center
Tue 05:38:46 PM 35.0075 -89.3481 351° North 374 430 40,000  Level Memphis Center
Tue 05:39:46 PM 35.1139 -89.3747 348° North 374 430 40,000  Level Memphis Center
Tue 05:40:46 PM 35.2206 -89.3989 350° North 379 436 40,000  Level Memphis Center
Tue 05:41:46 PM 35.3292 -89.4206 351° North 385 443 40,000  Level Memphis Center
Tue 05:42:46 PM 35.4358 -89.4447 350° North 390 449 40,000  Level Memphis Center
Tue 05:43:46 PM 35.5444 -89.4692 350° North 390 449 40,000  Level Memphis Center
Tue 05:44:46 PM 35.6508 -89.4933 350° North 390 449 40,000  Level Memphis Center
Tue 05:45:46 PM 35.7658 -89.5203 349° North 390 449 40,000  Level Memphis Center
Tue 05:46:46 PM 35.8722 -89.5425 350° North 390 449 40,000  Level Memphis Center
Tue 05:47:46 PM 35.9767 -89.5669 349° North 390 449 40,000  Level Memphis Center
Tue 05:48:46 PM 36.0811 -89.5917 349° North 390 449 40,000  Level Memphis Center
Tue 05:49:46 PM 36.1897 -89.6139 351° North 390 449 40,000  Level Memphis Center
Tue 05:50:46 PM 36.2942 -89.6411 348° North 390 449 40,000 -50 Level Memphis Center
Tue 05:51:46 PM 36.4006 -89.6658 349° North 390 449 39,900 -600 Descending Memphis Center
Tue 05:52:46 PM 36.5111 -89.6883 351° North 396 456 38,800 -1,000 Descending Memphis Center
Tue 05:53:46 PM 36.6258 -89.7131 350° North 396 456 37,900 -1,050 Descending Memphis Center
Tue 05:54:46 PM 36.7364 -89.7381 350° North 401 461 36,700 -1,552 Descending Memphis Center
Tue 05:56:40 PM 36.9381 -89.7769 351° North 403 464 33,400 -2,057 Descending Kansas City Center
Tue 05:57:41 PM 37.0464 -89.8064 348° North 399 459 30,700 -2,705 Descending Kansas City Center
Tue 05:58:42 PM 37.1528 -89.8500 342° North 400 460 27,900 -2,661 Descending Kansas City Center
Tue 05:59:45 PM 37.2589 -89.8886 344° North 398 458 25,200 -1,887 Descending Kansas City Center
Tue 06:00:46 PM 37.3589 -89.9269 343° North 381 438 24,000 -864 Descending Kansas City Center
Tue 06:01:50 PM 37.4775 -89.9686 344° North 371 427 23,400 -1,248 Descending Kansas City Center
Tue 06:02:51 PM 37.5794 -90.0042 345° North 378 435 21,400 -2,115 Descending Kansas City Center
Tue 06:03:52 PM 37.6783 -90.0275 349° North 378 435 19,100 -2,352 Descending Kansas City Center
Tue 06:04:56 PM 37.7814 -90.0519 349° North 377 434 16,500 -2,656 Descending Kansas City Center
Tue 06:06:03 PM 37.8981 -90.0069 17° North 333 383 13,300 -2,759 Descending FAA TRACON SMA TRACON (SMA)
Tue 06:06:23 PM 37.9244 -90.0119 351° North 317 365 12,500 -2,634 Descending FAA TRACON SMA TRACON (SMA)
Tue 06:06:44 PM 37.9544 -90.0192 349° North 294 338 11,500 -2,488 Descending FAA TRACON SMA TRACON (SMA)
Tue 06:07:04 PM 37.9783 -90.0208 357° North 279 321 10,800 -2,462 Descending FAA TRACON SMA TRACON (SMA)
Tue 06:07:23 PM 38.0008 -90.0250 352° North 268 308 9,900 -3,077 Descending FAA TRACON SMA TRACON (SMA)
Tue 06:07:43 PM 38.0294 -90.0294 353° North 267 307 8,800 -3,000 Descending FAA TRACON SMA TRACON (SMA)
Tue 06:08:03 PM 38.0517 -90.0347 349° North 266 306 7,900 -2,550 Descending FAA TRACON SMA TRACON (SMA)
Tue 06:08:23 PM 38.0733 -90.0425 344° North 262 302 7,100 -2,634 Descending FAA TRACON SMA TRACON (SMA)
Tue 06:08:44 PM 38.0972 -90.0572 334° Northwest 251 289 6,100 -2,400 Descending FAA TRACON SMA TRACON (SMA)
Tue 06:09:03 PM 38.1136 -90.0742 321° Northwest 246 283 5,500 -1,800 Descending FAA TRACON SMA TRACON (SMA)
Tue 06:09:24 PM 38.1344 -90.0908 328° Northwest 234 269 4,900 -1,610 Descending FAA TRACON SMA TRACON (SMA)
Tue 06:09:44 PM 38.1506 -90.1050 325° Northwest 228 262 4,400 -1,500 Descending FAA TRACON SMA TRACON (SMA)
Tue 06:10:04 PM 38.1656 -90.1211 320° Northwest 227 261 3,900 -1,800 Descending FAA TRACON SMA TRACON (SMA)
Tue 06:10:24 PM 38.1856 -90.1381 326° Northwest 226 260 3,200 -1,500 Descending FAA TRACON SMA TRACON (SMA)
Tue 06:10:44 PM 38.2011 -90.1503 328° Northwest 222 255 2,900 -450 Descending FAA TRACON SMA TRACON (SMA)
Tue 06:11:04 PM 38.2189 -90.1478 North 218 251 2,900  Level FAA TRACON SMA TRACON (SMA)
Tue 06:11:24 PM 38.2378 -90.1319 33° Northeast 225 259 2,900  Level FAA TRACON SMA TRACON (SMA)
Tue 06:11:44 PM 38.2519 -90.1142 45° Northeast 226 260 2,900  Level FAA TRACON SMA TRACON (SMA)
Tue 06:12:04 PM 38.2672 -90.0956 44° Northeast 236 272 2,900  Level FAA TRACON SMA TRACON (SMA)
Tue 06:12:24 PM 38.2822 -90.0778 43° Northeast 240 276 2,900  Level FAA TRACON SMA TRACON (SMA)
Tue 06:12:44 PM 38.3003 -90.0553 44° Northeast 237 273 2,900  Level FAA TRACON SMA TRACON (SMA)
Tue 06:13:04 PM 38.3142 -90.0372 46° Northeast 231 266 2,900  Level FAA TRACON SMA TRACON (SMA)
Tue 06:13:24 PM 38.3289 -90.0128 52° Northeast 230 265 2,900  Level FAA TRACON SMA TRACON (SMA)
Tue 06:13:43 PM 38.3372 -89.9922 63° Northeast 222 255 2,900 -150 Level FAA TRACON SMA TRACON (SMA)
Tue 06:14:04 PM 38.3425 -89.9700 73° East 218 251 2,800 -450 Descending FAA TRACON SMA TRACON (SMA)
Tue 06:14:23 PM 38.3489 -89.9417 74° East 216 249 2,600 -600 Descending FAA TRACON SMA TRACON (SMA)
Tue 06:14:44 PM 38.3558 -89.9181 69° East 219 252 2,400 -293 Descending FAA TRACON SMA TRACON (SMA)
Tue 06:15:04 PM 38.3683 -89.9056 38° Northeast 227 261 2,400 150 Level FAA TRACON SMA TRACON (SMA)
Tue 06:15:24 PM 38.3892 -89.9019 North 212 244 2,500  Climbing FAA TRACON SMA TRACON (SMA)
Tue 06:15:44 PM 38.4064 -89.9050 352° North 202 232 2,400 -150 Descending FAA TRACON SMA TRACON (SMA)
Tue 06:16:04 PM 38.4200 -89.9125 337° Northwest 187 215 2,400  Level FAA TRACON SMA TRACON (SMA)
Tue 06:16:24 PM 38.4408 -89.9192 346° North 194 223 2,400  Level FAA TRACON SMA TRACON (SMA)
Tue 06:16:44 PM 38.4556 -89.9286 333° Northwest 197 227 2,400  Level FAA TRACON SMA TRACON (SMA)
Tue 06:17:04 PM 38.4708 -89.9394 331° Northwest 203 234 2,400 150 Level FAA TRACON SMA TRACON (SMA)
Tue 06:17:24 PM 38.4892 -89.9525 331° Northwest 199 229 2,500 150 Climbing FAA TRACON SMA TRACON (SMA)
Tue 06:17:44 PM 38.4989 -89.9661 312° West 176 203 2,500  Level FAA TRACON SMA TRACON (SMA)
Tue 06:18:04 PM 38.5058 -89.9797 303° West 154 177 2,500 -450 Level FAA TRACON SMA TRACON (SMA)
Tue 06:18:24 PM 38.5133 -89.9975 298° West 147 169 2,200 -900 Descending FAA TRACON SMA TRACON (SMA)
Tue 06:18:44 PM 38.5203 -90.0108 304° West 148 170 1,900 -900 Descending FAA TRACON SMA TRACON (SMA)
Tue 06:19:04 PM 38.5264 -90.0219 305° West 132 152 1,600 -750 Descending FAA TRACON SMA TRACON (SMA)
Tue 06:19:24 PM 38.5317 -90.0325 303° West 116 133 1,400 -750 Descending FAA TRACON SMA TRACON (SMA)
Tue 06:19:44 PM 38.5378 -90.0458 300° West 111 128 1,100 -450 Descending FAA TRACON SMA TRACON (SMA)
Tue 06:20:04 PM 38.5419 -90.0556 299° West 107 123 1,100 -300 Level FAA TRACON SMA TRACON (SMA)
Tue 06:20:24 PM 38.5481 -90.0667 305° West 102 117 900 -300 Descending FAA TRACON SMA TRACON (SMA)
Tue 06:20:44 PM 38.5481 -90.0667 150° Southeast 102 117 900  Level FAA TRACON SMA TRACON (SMA)

Login

Don't have an account? Register now (free) for customized features, flight alerts, and more!